Home > Products > Valid Products > TAF

000
FTUS42 KTBW 131720
TAFPIE
TAF
KPIE 131720Z 1318/1418 34011G17KT P6SM SKC
     FM140300 02011KT P6SM SKC
     FM141400 07008KT P6SM SKC=



000
FTUS42 KTBW 131720
TAFSRQ
TAF
KSRQ 131720Z 1318/1418 34011G17KT P6SM SKC
     FM140200 36006KT P6SM SKC
     FM140600 04008KT P6SM SKC
     FM141500 07010G15KT P6SM SKC=



000
FTUS42 KTBW 131720
TAFPIE
TAF
KPIE 131720Z 1318/1418 34011G17KT P6SM SKC
     FM140300 02011KT P6SM SKC
     FM141400 07008KT P6SM SKC=



000
FTUS42 KTBW 131720
TAFTPA
TAF
KTPA 131720Z 1318/1418 33011G17KT P6SM SKC
     FM140200 01007KT P6SM SKC
     FM141400 05007KT P6SM SKC=



000
FTUS42 KTBW 131720
TAFFMY
TAF
KFMY 131720Z 1318/1418 33011KT P6SM FEW025
     FM140300 02008KT P6SM SKC
     FM141400 08010G15KT P6SM FEW020=



000
FTUS42 KTBW 131720
TAFRSW
TAF
KRSW 131720Z 1318/1418 33011KT P6SM FEW025
     FM140300 03008KT P6SM SKC
     FM141400 07010G15KT P6SM FEW020=



000
FTUS42 KTBW 131500 AAA
TAFTPA
TAF AMD
KTPA 131500Z 1315/1412 34011G17KT P6SM SKC
     FM140000 01007KT P6SM SKC
     FM140600 03005KT P6SM SKC=



000
FTUS42 KTBW 131132
TAFRSW
TAF
KRSW 131132Z 1312/1412 30006KT P6SM SCT025
     FM131500 35009KT P6SM FEW025
     FM131700 36011G17KT P6SM SKC
     FM140000 02008KT P6SM SKC=



000
FTUS42 KTBW 131132
TAFSRQ
TAF
KSRQ 131132Z 1312/1412 31008KT P6SM SCT025
      TEMPO 1312/1314 BKN025
     FM131400 35012G18KT P6SM SKC
     FM140000 01008KT P6SM SKC
     FM140600 05007KT P6SM SKC=



000
FTUS42 KTBW 131132
TAFFMY
TAF
KFMY 131132Z 1312/1412 30006KT P6SM SCT025
     FM131500 35009KT P6SM FEW025
     FM131700 36011G17KT P6SM SKC
     FM140000 02009KT P6SM SKC=



000
FTUS42 KTBW 131132
TAFRSW
TAF
KRSW 131132Z 1312/1412 30006KT P6SM SCT025
     FM131500 35009KT P6SM FEW025
     FM131700 36011G17KT P6SM SKC
     FM140000 02008KT P6SM SKC=



000
FTUS42 KTBW 131132
TAFTPA
TAF
KTPA 131132Z 1312/1412 29007KT P6SM SCT025
      TEMPO 1312/1313 BKN025
     FM131300 33008KT P6SM FEW025
     FM131500 34011G17KT P6SM SKC
     FM140000 01007KT P6SM SKC
     FM140600 03005KT P6SM SKC=



000
FTUS42 KTBW 131132
TAFPIE
TAF
KPIE 131132Z 1312/1412 29007KT P6SM SCT025
      TEMPO 1312/1313 BKN025
     FM131300 33009KT P6SM FEW025
     FM131500 34012G18KT P6SM SKC
     FM140000 01011KT P6SM SKC
     FM140600 03009KT P6SM SKC=



000
FTUS42 KTBW 131132
TAFFMY
TAF
KFMY 131132Z 1312/1412 30006KT P6SM SCT025
     FM131500 35009KT P6SM FEW025
     FM131700 36011G17KT P6SM SKC
     FM140000 02009KT P6SM SKC=



000
FTUS42 KTBW 131132
TAFSRQ
TAF
KSRQ 131132Z 1312/1412 31008KT P6SM SCT025
      TEMPO 1312/1314 BKN025
     FM131400 35012G18KT P6SM SKC
     FM140000 01008KT P6SM SKC
     FM140600 05007KT P6SM SKC=



000
FTUS42 KTBW 131132
TAFTPA
TAF
KTPA 131132Z 1312/1412 29007KT P6SM SCT025
      TEMPO 1312/1313 BKN025
     FM131300 33008KT P6SM FEW025
     FM131500 34011G17KT P6SM SKC
     FM140000 01007KT P6SM SKC
     FM140600 03005KT P6SM SKC=



000
FTUS42 KTBW 131132
TAFPIE
TAF
KPIE 131132Z 1312/1412 29007KT P6SM SCT025
      TEMPO 1312/1313 BKN025
     FM131300 33009KT P6SM FEW025
     FM131500 34012G18KT P6SM SKC
     FM140000 01011KT P6SM SKC
     FM140600 03009KT P6SM SKC=



000
FTUS42 KTBW 130906 AAA
TAFTPA
TAF AMD
KTPA 130906Z 1309/1406 28006KT P6SM SCT025
      TEMPO 1310/1313 6SM BR SCT012 BKN020
     FM131300 32008KT P6SM FEW025
     FM131500 34011G17KT P6SM FEW040
     FM140000 01007KT P6SM SKC=



000
FTUS42 KTBW 130541
TAFPIE
TAF
KPIE 130541Z 1306/1406 24006KT P6SM FEW025
     FM130800 27006KT P6SM SCT025
      TEMPO 1308/1311 5SM BR BKN025
     FM131100 32008KT P6SM FEW025
     FM131400 35011G17KT P6SM FEW040
     FM140000 01010KT P6SM SKC=



000
FTUS42 KTBW 130541
TAFFMY
TAF
KFMY 130541Z 1306/1406 23004KT P6SM SKC
     FM130900 27004KT 6SM BR FEW002 FEW025
      TEMPO 1309/1312 4SM BR SCT002
     FM131200 32005KT 6SM BR FEW005 SCT025
     FM131500 35010G17KT P6SM FEW040
     FM140000 01008KT P6SM SKC=



000
FTUS42 KTBW 130541
TAFSRQ
TAF
KSRQ 130541Z 1306/1406 23006KT P6SM FEW025
     FM130800 27006KT P6SM SCT025
      TEMPO 1309/1312 5SM BR SCT025
     FM131200 33008KT P6SM FEW025
     FM131400 35011G17KT P6SM FEW040
     FM140000 01007KT P6SM SKC=



000
FTUS42 KTBW 130541
TAFTPA
TAF
KTPA 130541Z 1306/1406 24006KT P6SM FEW025
     FM130800 27006KT P6SM SCT025
      TEMPO 1308/1311 5SM BR BKN025
     FM131100 32008KT P6SM FEW025
     FM131400 34011G17KT P6SM FEW040
     FM140000 01007KT P6SM SKC=



000
FTUS42 KTBW 130541
TAFRSW
TAF
KRSW 130541Z 1306/1406 23003KT P6SM SKC
     FM130900 27003KT 6SM BR FEW002 FEW025
      TEMPO 1309/1312 4SM BR SCT002
     FM131200 32005KT 6SM BR FEW005 SCT025
     FM131500 35010G17KT P6SM FEW040
     FM140000 01007KT P6SM SKC=



000
FTUS42 KTBW 130541
TAFFMY
TAF
KFMY 130541Z 1306/1406 23004KT P6SM SKC
     FM130900 27004KT 6SM BR FEW002 FEW025
      TEMPO 1309/1312 4SM BR SCT002
     FM131200 32005KT 6SM BR FEW005 SCT025
     FM131500 35010G17KT P6SM FEW040
     FM140000 01008KT P6SM SKC=



000
FTUS42 KTBW 130541
TAFTPA
TAF
KTPA 130541Z 1306/1406 24006KT P6SM FEW025
     FM130800 27006KT P6SM SCT025
      TEMPO 1308/1311 5SM BR BKN025
     FM131100 32008KT P6SM FEW025
     FM131400 34011G17KT P6SM FEW040
     FM140000 01007KT P6SM SKC=



000
FTUS42 KTBW 130541
TAFRSW
TAF
KRSW 130541Z 1306/1406 23003KT P6SM SKC
     FM130900 27003KT 6SM BR FEW002 FEW025
      TEMPO 1309/1312 4SM BR SCT002
     FM131200 32005KT 6SM BR FEW005 SCT025
     FM131500 35010G17KT P6SM FEW040
     FM140000 01007KT P6SM SKC=



000
FTUS42 KTBW 130541
TAFSRQ
TAF
KSRQ 130541Z 1306/1406 23006KT P6SM FEW025
     FM130800 27006KT P6SM SCT025
      TEMPO 1309/1312 5SM BR SCT025
     FM131200 33008KT P6SM FEW025
     FM131400 35011G17KT P6SM FEW040
     FM140000 01007KT P6SM SKC=



000
FTUS42 KTBW 130541
TAFPIE
TAF
KPIE 130541Z 1306/1406 24006KT P6SM FEW025
     FM130800 27006KT P6SM SCT025
      TEMPO 1308/1311 5SM BR BKN025
     FM131100 32008KT P6SM FEW025
     FM131400 35011G17KT P6SM FEW040
     FM140000 01010KT P6SM SKC=



000
FTUS42 KTBW 130256 AAA
TAFTPA
TAF AMD
KTPA 130256Z 1303/1324 23006KT P6SM SCT030
     FM130800 29009KT P6SM FEW020
     FM131000 32007KT P6SM SCT010
     FM131300 36010G15KT P6SM FEW060=



000
FTUS42 KTBW 122326
TAFSRQ
TAF
KSRQ 122326Z 1300/1324 23007KT P6SM SKC
     FM130800 29009KT P6SM FEW020
     FM131000 32007KT P6SM SCT010
     FM131400 36012G18KT P6SM FEW060=



000
FTUS42 KTBW 122326
TAFTPA
TAF
KTPA 122326Z 1300/1324 24007KT P6SM SKC
     FM130800 29009KT P6SM FEW020
     FM131000 32007KT P6SM SCT010
     FM131300 36010G15KT P6SM FEW060=



000
FTUS42 KTBW 122326
TAFFMY
TAF
KFMY 122326Z 1300/1324 30007KT P6SM SKC
     FM131300 34006KT P6SM FEW020
     FM131500 35012G18KT P6SM SCT035=



000
FTUS42 KTBW 122326
TAFPIE
TAF
KPIE 122326Z 1300/1324 24009KT P6SM SKC
     FM130800 29009KT P6SM FEW020
     FM131000 32007KT P6SM SCT010
     FM131300 36010G15KT P6SM FEW060=



000
FTUS42 KTBW 122326
TAFTPA
TAF
KTPA 122326Z 1300/1324 24007KT P6SM SKC
     FM130800 29009KT P6SM FEW020
     FM131000 32007KT P6SM SCT010
     FM131300 36010G15KT P6SM FEW060=



000
FTUS42 KTBW 122326
TAFFMY
TAF
KFMY 122326Z 1300/1324 30007KT P6SM SKC
     FM131300 34006KT P6SM FEW020
     FM131500 35012G18KT P6SM SCT035=



000
FTUS42 KTBW 122326
TAFSRQ
TAF
KSRQ 122326Z 1300/1324 23007KT P6SM SKC
     FM130800 29009KT P6SM FEW020
     FM131000 32007KT P6SM SCT010
     FM131400 36012G18KT P6SM FEW060=



000
FTUS42 KTBW 122326
TAFRSW
TAF
KRSW 122326Z 1300/1324 30007KT P6SM SKC
     FM131300 34006KT P6SM FEW020
     FM131500 35012G18KT P6SM SCT035=



000
FTUS42 KTBW 122326
TAFPIE
TAF
KPIE 122326Z 1300/1324 24009KT P6SM SKC
     FM130800 29009KT P6SM FEW020
     FM131000 32007KT P6SM SCT010
     FM131300 36010G15KT P6SM FEW060=



000
FTUS42 KTBW 122326
TAFRSW
TAF
KRSW 122326Z 1300/1324 30007KT P6SM SKC
     FM131300 34006KT P6SM FEW020
     FM131500 35012G18KT P6SM SCT035=



000
FTUS42 KTBW 122057 AAA
TAFTPA
TAF AMD
KTPA 122057Z 1221/1318 24010KT P6SM FEW040
     FM130100 24006KT P6SM FEW035
     FM130700 28006KT P6SM SCT035
     FM131000 32007KT P6SM FEW035
     FM131400 36010G18KT P6SM SKC=



000
FTUS42 KTBW 121738
TAFSRQ
TAF
KSRQ 121738Z 1218/1318 24010KT P6SM FEW040
     FM130200 24004KT P6SM FEW035
     FM130800 29005KT P6SM SCT035
     FM131100 34008KT P6SM SCT035
     FM131400 36012G18KT P6SM SKC=



000
FTUS42 KTBW 121738
TAFRSW
TAF
KRSW 121738Z 1218/1318 VRB03KT P6SM SKC
     FM122100 27007KT P6SM SKC
     FM130800 VRB03KT P6SM SCT035
     FM131500 36008G18KT P6SM SKC=



000
FTUS42 KTBW 121738
TAFTPA
TAF
KTPA 121738Z 1218/1318 23010KT P6SM FEW040
     FM130100 24006KT P6SM FEW035
     FM130700 28006KT P6SM SCT035
     FM131000 32007KT P6SM FEW035
     FM131400 36010G18KT P6SM SKC=



000
FTUS42 KTBW 121738
TAFFMY
TAF
KFMY 121738Z 1218/1318 VRB03KT P6SM SKC
     FM122100 27007KT P6SM SKC
     FM130800 31005KT P6SM SCT035
     FM131500 35010G18KT P6SM SKC=



000
FTUS42 KTBW 121738
TAFPIE
TAF
KPIE 121738Z 1218/1318 24012G18KT P6SM FEW040
     FM130100 24007KT P6SM FEW035
     FM130700 28006KT P6SM SCT035
     FM131000 32008KT P6SM FEW035
     FM131400 36012G18KT P6SM SKC=



000
FTUS42 KTBW 121457 AAA
TAFTPA
TAF AMD
KTPA 121457Z 1215/1312 22008KT P6SM SKC
     FM121800 25012KT P6SM SKC
     FM130200 25005KT P6SM SKC
     FM130900 31007KT 6SM BR FEW020=



000
FTUS42 KTBW 121123
TAFRSW
TAF
KRSW 121123Z 1212/1312 VRB03KT P6SM SKC
     FM121800 26008KT P6SM SKC
     FM130000 28004KT P6SM SKC
     FM130900 30005KT 6SM BR FEW020=



000
FTUS42 KTBW 121123
TAFPIE
TAF
KPIE 121123Z 1212/1312 18005KT 6SM BR SKC
     FM121400 22008KT P6SM SKC
     FM121800 24013KT P6SM SKC
     FM130000 24005KT P6SM SKC
     FM130900 31007KT 6SM BR FEW020=



000
FTUS42 KTBW 121123
TAFSRQ
TAF
KSRQ 121123Z 1212/1312 VRB03KT 3SM BR SKC
      TEMPO 1212/1214 1/4SM FG OVC001
     FM121400 19006KT P6SM SKC
     FM121800 25010KT P6SM SKC
     FM130000 24004KT P6SM SKC
     FM130900 30007KT 6SM BR FEW020=



000
FTUS42 KTBW 121123
TAFFMY
TAF
KFMY 121123Z 1212/1312 VRB03KT P6SM SKC
     FM121800 26008KT P6SM SKC
     FM130000 29004KT P6SM SKC
     FM130900 30005KT 6SM BR FEW020=



000
FTUS42 KTBW 121123
TAFTPA
TAF
KTPA 121123Z 1212/1312 VRB03KT 6SM BR SKC
     FM121400 22008KT P6SM SKC
     FM121800 25011KT P6SM SKC
     FM130200 25005KT P6SM SKC
     FM130900 31007KT 6SM BR FEW020=



000
FTUS42 KTBW 121123
TAFSRQ
TAF
KSRQ 121123Z 1212/1312 VRB03KT 3SM BR SKC
      TEMPO 1212/1214 1/4SM FG OVC001
     FM121400 19006KT P6SM SKC
     FM121800 25010KT P6SM SKC
     FM130000 24004KT P6SM SKC
     FM130900 30007KT 6SM BR FEW020=



000
FTUS42 KTBW 121123
TAFPIE
TAF
KPIE 121123Z 1212/1312 18005KT 6SM BR SKC
     FM121400 22008KT P6SM SKC
     FM121800 24013KT P6SM SKC
     FM130000 24005KT P6SM SKC
     FM130900 31007KT 6SM BR FEW020=



000
FTUS42 KTBW 121123
TAFFMY
TAF
KFMY 121123Z 1212/1312 VRB03KT P6SM SKC
     FM121800 26008KT P6SM SKC
     FM130000 29004KT P6SM SKC
     FM130900 30005KT 6SM BR FEW020=



000
FTUS42 KTBW 121123
TAFRSW
TAF
KRSW 121123Z 1212/1312 VRB03KT P6SM SKC
     FM121800 26008KT P6SM SKC
     FM130000 28004KT P6SM SKC
     FM130900 30005KT 6SM BR FEW020=



000
FTUS42 KTBW 121123
TAFTPA
TAF
KTPA 121123Z 1212/1312 VRB03KT 6SM BR SKC
     FM121400 22008KT P6SM SKC
     FM121800 25011KT P6SM SKC
     FM130200 25005KT P6SM SKC
     FM130900 31007KT 6SM BR FEW020=



000
FTUS42 KTBW 120919 AAA
TAFSRQ
TAF AMD
KSRQ 120919Z 1209/1306 VRB03KT 5SM BR SKC
      TEMPO 1209/1213 1/2SM FG OVC001
     FM121400 20006KT P6SM SKC
     FM121800 25010KT P6SM SKC
     FM130000 24004KT P6SM SKC=



000
FTUS42 KTBW 120915 AAA
TAFTPA
TAF AMD
KTPA 120915Z 1209/1306 VRB03KT P6SM SKC
      TEMPO 1209/1213 3SM BR
     FM121400 22008KT P6SM SKC
     FM121800 25011KT P6SM SKC
     FM130200 25005KT P6SM SKC=



000
FTUS42 KTBW 120713 AAA
TAFRSW
TAF AMD
KRSW 120713Z 1207/1306 VRB02KT 6SM BR SKC
      TEMPO 1207/1211 1SM BR
     FM121400 VRB06KT P6SM SKC
     FM121800 26008KT P6SM SKC
     FM130000 28004KT P6SM SKC=



000
FTUS42 KTBW 120713 AAA
TAFRSW
TAF AMD
KRSW 120713Z 1207/1306 VRB02KT 6SM BR SKC
      TEMPO 1207/1211 1SM BR
     FM121400 VRB06KT P6SM SKC
     FM121800 26008KT P6SM SKC
     FM130000 28004KT P6SM SKC=



000
FTUS42 KTBW 120612 CCA
TAFTPA
TAF COR
KTPA 120612Z 1206/1306 VRB03KT 6SM BR SKC
      TEMPO 1207/1211 3SM BR
     FM121400 22008KT P6SM SKC
     FM121800 25011KT P6SM SKC
     FM130200 25005KT P6SM SKC=



000
FTUS42 KTBW 120612 CCA
TAFPIE
TAF COR
KPIE 120612Z 1206/1306 VRB04KT 6SM BR SKC
      TEMPO 1207/1211 3SM BR
     FM121400 22010KT P6SM SKC
     FM121800 24013KT P6SM SKC
     FM130000 24007KT P6SM SKC=



000
FTUS42 KTBW 120612 CCA
TAFTPA
TAF COR
KTPA 120612Z 1206/1306 VRB03KT 6SM BR SKC
      TEMPO 1207/1211 3SM BR
     FM121400 22008KT P6SM SKC
     FM121800 25011KT P6SM SKC
     FM130200 25005KT P6SM SKC=



000
FTUS42 KTBW 120612 CCA
TAFPIE
TAF COR
KPIE 120612Z 1206/1306 VRB04KT 6SM BR SKC
      TEMPO 1207/1211 3SM BR
     FM121400 22010KT P6SM SKC
     FM121800 24013KT P6SM SKC
     FM130000 24007KT P6SM SKC=



000
FTUS42 KTBW 120540
TAFSRQ
TAF
KSRQ 120540Z 1206/1306 VRB03KT 5SM BR SKC
      TEMPO 1206/1210 2SM BR
     FM121400 20006KT P6SM SKC
     FM121800 25010KT P6SM SKC
     FM130000 24004KT P6SM SKC=



000
FTUS42 KTBW 120540
TAFFMY
TAF
KFMY 120540Z 1206/1306 VRB02KT 6SM BR SKC
     FM121400 VRB05KT P6SM SKC
     FM121800 26008KT P6SM SKC
     FM130000 29004KT P6SM SKC=



000
FTUS42 KTBW 120540
TAFTPA
TAF
KTPA 120540Z 1206/1306 VRB03KT 6SM BR SKC
      TEMPO 1207/1211 2SM BR
     FM121400 22008KT P6SM SKC
     FM121800 25011KT P6SM SKC
     FM130200 25005KT P6SM SKC=



000
FTUS42 KTBW 120540
TAFRSW
TAF
KRSW 120540Z 1206/1306 VRB02KT 6SM BR SKC
     FM121400 VRB06KT P6SM SKC
     FM121800 26008KT P6SM SKC
     FM130000 28004KT P6SM SKC=



000
FTUS42 KTBW 120540
TAFPIE
TAF
KPIE 120540Z 1206/1306 VRB04KT 6SM BR SKC
      TEMPO 1207/1211 2SM BR
     FM121400 22010KT P6SM SKC
     FM121800 24013KT P6SM SKC
     FM130000 24007KT P6SM SKC=



000
FTUS42 KTBW 120540
TAFRSW
TAF
KRSW 120540Z 1206/1306 VRB02KT 6SM BR SKC
     FM121400 VRB06KT P6SM SKC
     FM121800 26008KT P6SM SKC
     FM130000 28004KT P6SM SKC=



000
FTUS42 KTBW 120540
TAFPIE
TAF
KPIE 120540Z 1206/1306 VRB04KT 6SM BR SKC
      TEMPO 1207/1211 2SM BR
     FM121400 22010KT P6SM SKC
     FM121800 24013KT P6SM SKC
     FM130000 24007KT P6SM SKC=



000
FTUS42 KTBW 120540
TAFSRQ
TAF
KSRQ 120540Z 1206/1306 VRB03KT 5SM BR SKC
      TEMPO 1206/1210 2SM BR
     FM121400 20006KT P6SM SKC
     FM121800 25010KT P6SM SKC
     FM130000 24004KT P6SM SKC=



000
FTUS42 KTBW 120540
TAFFMY
TAF
KFMY 120540Z 1206/1306 VRB02KT 6SM BR SKC
     FM121400 VRB05KT P6SM SKC
     FM121800 26008KT P6SM SKC
     FM130000 29004KT P6SM SKC=



000
FTUS42 KTBW 120540
TAFTPA
TAF
KTPA 120540Z 1206/1306 VRB03KT 6SM BR SKC
      TEMPO 1207/1211 2SM BR
     FM121400 22008KT P6SM SKC
     FM121800 25011KT P6SM SKC
     FM130200 25005KT P6SM SKC=



000
FTUS42 KTBW 120306 AAA
TAFTPA
TAF AMD
KTPA 120306Z 1203/1224 VRB03KT P6SM SKC
     FM121400 20008KT P6SM SKC
     FM121800 24011KT P6SM SKC=



000
FTUS42 KTBW 120306 AAA
TAFTPA
TAF AMD
KTPA 120306Z 1203/1224 VRB03KT P6SM SKC
     FM121400 20008KT P6SM SKC
     FM121800 24011KT P6SM SKC=



000
FTUS42 KTBW 112338
TAFFMY
TAF
KFMY 112338Z 1200/1224 VRB02KT P6SM SKC
     FM121400 VRB06KT P6SM SKC
     FM121800 26008KT P6SM SKC=



000
FTUS42 KTBW 112338
TAFPIE
TAF
KPIE 112338Z 1200/1224 22008KT P6SM SKC
     FM120100 VRB04KT P6SM SKC
     FM121400 20010KT P6SM SKC
     FM121700 24013KT P6SM SKC=



000
FTUS42 KTBW 112338
TAFTPA
TAF
KTPA 112338Z 1200/1224 22005KT P6SM SKC
     FM120100 VRB03KT P6SM SKC
     FM121400 20008KT P6SM SKC
     FM121800 24011KT P6SM SKC=



000
FTUS42 KTBW 112338
TAFRSW
TAF
KRSW 112338Z 1200/1224 VRB02KT P6SM SKC
     FM120800 00000KT 6SM BR SKC
     FM121400 VRB06KT P6SM SKC
     FM121800 26008KT P6SM SKC=



000
FTUS42 KTBW 112338
TAFSRQ
TAF
KSRQ 112338Z 1200/1224 27006KT P6SM SKC
     FM120100 VRB03KT P6SM SKC
     FM121400 21008KT P6SM SKC
     FM121700 24010KT P6SM SKC=



000
FTUS42 KTBW 112338
TAFFMY
TAF
KFMY 112338Z 1200/1224 VRB02KT P6SM SKC
     FM121400 VRB06KT P6SM SKC
     FM121800 26008KT P6SM SKC=



000
FTUS42 KTBW 112338
TAFPIE
TAF
KPIE 112338Z 1200/1224 22008KT P6SM SKC
     FM120100 VRB04KT P6SM SKC
     FM121400 20010KT P6SM SKC
     FM121700 24013KT P6SM SKC=



000
FTUS42 KTBW 112338
TAFTPA
TAF
KTPA 112338Z 1200/1224 22005KT P6SM SKC
     FM120100 VRB03KT P6SM SKC
     FM121400 20008KT P6SM SKC
     FM121800 24011KT P6SM SKC=



000
FTUS42 KTBW 112338
TAFRSW
TAF
KRSW 112338Z 1200/1224 VRB02KT P6SM SKC
     FM120800 00000KT 6SM BR SKC
     FM121400 VRB06KT P6SM SKC
     FM121800 26008KT P6SM SKC=



000
FTUS42 KTBW 112338
TAFSRQ
TAF
KSRQ 112338Z 1200/1224 27006KT P6SM SKC
     FM120100 VRB03KT P6SM SKC
     FM121400 21008KT P6SM SKC
     FM121700 24010KT P6SM SKC=



000
FTUS42 KTBW 112056 AAA
TAFTPA
TAF AMD
KTPA 112056Z 1121/1218 24006KT P6SM SKC
     FM120100 VRB03KT P6SM SKC
     FM121600 24009KT P6SM SKC=



000
FTUS42 KTBW 111731
TAFFMY
TAF
KFMY 111731Z 1118/1218 05007KT P6SM SKC
     FM112000 31006KT P6SM SKC
     FM120100 00000KT P6SM SKC
     FM121600 VRB04KT P6SM SKC=



000
FTUS42 KTBW 111731
TAFSRQ
TAF
KSRQ 111731Z 1118/1218 21007KT P6SM SKC
     FM112000 29007KT P6SM SKC
     FM120100 VRB03KT P6SM SKC
     FM121600 22007KT P6SM SKC=



000
FTUS42 KTBW 111731
TAFTPA
TAF
KTPA 111731Z 1118/1218 21004KT P6SM SKC
     FM112000 26007KT P6SM SKC
     FM120100 VRB03KT P6SM SKC
     FM121600 24009KT P6SM SKC=



000
FTUS42 KTBW 111731
TAFPIE
TAF
KPIE 111731Z 1118/1218 05004KT P6SM SKC
     FM112000 25007KT P6SM SKC
     FM120100 22004KT P6SM SKC
     FM121600 22010KT P6SM SKC=



000
FTUS42 KTBW 111731
TAFRSW
TAF
KRSW 111731Z 1118/1218 04006KT P6SM SKC
     FM112000 27004KT P6SM SKC
     FM120100 00000KT P6SM SKC
     FM121600 VRB04KT P6SM SKC=



000
FTUS42 KTBW 111731
TAFTPA
TAF
KTPA 111731Z 1118/1218 21004KT P6SM SKC
     FM112000 26007KT P6SM SKC
     FM120100 VRB03KT P6SM SKC
     FM121600 24009KT P6SM SKC=



000
FTUS42 KTBW 111731
TAFRSW
TAF
KRSW 111731Z 1118/1218 04006KT P6SM SKC
     FM112000 27004KT P6SM SKC
     FM120100 00000KT P6SM SKC
     FM121600 VRB04KT P6SM SKC=



000
FTUS42 KTBW 111731
TAFPIE
TAF
KPIE 111731Z 1118/1218 05004KT P6SM SKC
     FM112000 25007KT P6SM SKC
     FM120100 22004KT P6SM SKC
     FM121600 22010KT P6SM SKC=



000
FTUS42 KTBW 111731
TAFSRQ
TAF
KSRQ 111731Z 1118/1218 21007KT P6SM SKC
     FM112000 29007KT P6SM SKC
     FM120100 VRB03KT P6SM SKC
     FM121600 22007KT P6SM SKC=



000
FTUS42 KTBW 111458 AAA
TAFTPA
TAF AMD
KTPA 111458Z 1115/1212 05005KT P6SM SKC
     FM111800 23008KT P6SM FEW250
     FM120000 VRB03KT P6SM SKC=



000
FTUS42 KTBW 111120
TAFTPA
TAF
KTPA 111120Z 1112/1212 VRB03KT P6SM SKC
     FM111400 06006KT P6SM FEW250
     FM111800 23008KT P6SM FEW250
     FM120000 VRB03KT P6SM SKC=



000
FTUS42 KTBW 111120
TAFRSW
TAF
KRSW 111120Z 1112/1212 VRB03KT P6SM SKC
     FM111400 04008KT P6SM FEW250
     FM111800 27005KT P6SM FEW250
     FM120000 VRB02KT P6SM SKC=



000
FTUS42 KTBW 111120
TAFPIE
TAF
KPIE 111120Z 1112/1212 VRB03KT P6SM SKC
     FM111400 05006KT P6SM FEW250
     FM111800 26009KT P6SM FEW250
     FM120000 VRB04KT P6SM SKC=



000
FTUS42 KTBW 111120
TAFSRQ
TAF
KSRQ 111120Z 1112/1212 VRB04KT P6SM SKC
     FM111400 06007KT P6SM FEW250
     FM111800 28009KT P6SM FEW250
     FM120000 VRB03KT P6SM SKC=



000
FTUS42 KTBW 111120
TAFFMY
TAF
KFMY 111120Z 1112/1212 VRB03KT P6SM SKC
     FM111400 04008KT P6SM FEW250
     FM112000 29006KT P6SM FEW250
     FM120000 VRB03KT P6SM SKC=



000
FTUS42 KTBW 110902 AAA
TAFTPA
TAF AMD
KTPA 110902Z 1109/1206 VRB03KT P6SM SKC
     FM111400 06006KT P6SM FEW250
     FM111800 23008KT P6SM FEW250
     FM120000 VRB03KT P6SM SKC=



000
FTUS42 KTBW 110529
TAFPIE
TAF
KPIE 110529Z 1106/1206 VRB03KT P6SM SKC
     FM111400 05006KT P6SM FEW250
     FM111800 26009KT P6SM FEW250
     FM120000 VRB04KT P6SM SKC=



000
FTUS42 KTBW 110529
TAFSRQ
TAF
KSRQ 110529Z 1106/1206 VRB04KT P6SM SKC
     FM111400 06007KT P6SM FEW250
     FM111800 28009KT P6SM FEW250
     FM120000 VRB03KT P6SM SKC=



000
FTUS42 KTBW 110529
TAFFMY
TAF
KFMY 110529Z 1106/1206 VRB03KT P6SM SKC
     FM111400 04008KT P6SM FEW250
     FM112000 29006KT P6SM FEW250
     FM120000 VRB03KT P6SM SKC=



000
FTUS42 KTBW 110529
TAFTPA
TAF
KTPA 110529Z 1106/1206 VRB03KT P6SM SKC
     FM111400 06006KT P6SM FEW250
     FM111800 23008KT P6SM FEW250
     FM120000 VRB03KT P6SM SKC=



000
FTUS42 KTBW 110529
TAFSRQ
TAF
KSRQ 110529Z 1106/1206 VRB04KT P6SM SKC
     FM111400 06007KT P6SM FEW250
     FM111800 28009KT P6SM FEW250
     FM120000 VRB03KT P6SM SKC=



000
FTUS42 KTBW 110529
TAFPIE
TAF
KPIE 110529Z 1106/1206 VRB03KT P6SM SKC
     FM111400 05006KT P6SM FEW250
     FM111800 26009KT P6SM FEW250
     FM120000 VRB04KT P6SM SKC=



000
FTUS42 KTBW 110529
TAFTPA
TAF
KTPA 110529Z 1106/1206 VRB03KT P6SM SKC
     FM111400 06006KT P6SM FEW250
     FM111800 23008KT P6SM FEW250
     FM120000 VRB03KT P6SM SKC=



000
FTUS42 KTBW 110529
TAFFMY
TAF
KFMY 110529Z 1106/1206 VRB03KT P6SM SKC
     FM111400 04008KT P6SM FEW250
     FM112000 29006KT P6SM FEW250
     FM120000 VRB03KT P6SM SKC=



000
FTUS42 KTBW 110529
TAFRSW
TAF
KRSW 110529Z 1106/1206 VRB03KT P6SM SKC
     FM111400 04008KT P6SM FEW250
     FM111800 VRB05KT P6SM FEW250=



000
FTUS42 KTBW 110529
TAFRSW
TAF
KRSW 110529Z 1106/1206 VRB03KT P6SM SKC
     FM111400 04008KT P6SM FEW250
     FM111800 VRB05KT P6SM FEW250=



000
FTUS42 KTBW 110257 AAA
TAFTPA
TAF AMD
KTPA 110257Z 1103/1124 VRB03KT P6SM SKC
     FM111400 06006KT P6SM FEW250
     FM111800 23008KT P6SM FEW250=



000
FTUS42 KTBW 110257 AAA
TAFTPA
TAF AMD
KTPA 110257Z 1103/1124 VRB03KT P6SM SKC
     FM111400 06006KT P6SM FEW250
     FM111800 23008KT P6SM FEW250=



000
FTUS42 KTBW 102340
TAFTPA
TAF
KTPA 102340Z 1100/1124 30009KT P6SM FEW060 FEW250
     FM110200 VRB03KT P6SM SKC
     FM111400 06006KT P6SM FEW250
     FM111800 23008KT P6SM FEW250=



000
FTUS42 KTBW 102340
TAFPIE
TAF
KPIE 102340Z 1100/1124 31011KT P6SM FEW060 FEW250
     FM110300 VRB06KT P6SM SKC
     FM111400 09007KT P6SM FEW250
     FM111800 23009KT P6SM FEW250=



000
FTUS42 KTBW 102340
TAFSRQ
TAF
KSRQ 102340Z 1100/1124 32010KT P6SM FEW040 FEW250
     FM110200 VRB04KT P6SM SKC
     FM111400 07007KT P6SM FEW250
     FM111800 26009KT P6SM FEW250=



000
FTUS42 KTBW 102340
TAFFMY
TAF
KFMY 102340Z 1100/1124 32009KT P6SM SCT040 SCT250
     FM110200 VRB03KT P6SM SKC
     FM111400 04008KT P6SM FEW250
     FM112000 29008KT P6SM FEW250=



000
FTUS42 KTBW 102340
TAFRSW
TAF
KRSW 102340Z 1100/1124 32008KT P6SM FEW040 FEW250
     FM110200 VRB03KT P6SM SKC
     FM111400 04008KT P6SM FEW250=



000
FTUS42 KTBW 102340
TAFPIE
TAF
KPIE 102340Z 1100/1124 31011KT P6SM FEW060 FEW250
     FM110300 VRB06KT P6SM SKC
     FM111400 09007KT P6SM FEW250
     FM111800 23009KT P6SM FEW250=



000
FTUS42 KTBW 102340
TAFRSW
TAF
KRSW 102340Z 1100/1124 32008KT P6SM FEW040 FEW250
     FM110200 VRB03KT P6SM SKC
     FM111400 04008KT P6SM FEW250=



000
FTUS42 KTBW 102340
TAFFMY
TAF
KFMY 102340Z 1100/1124 32009KT P6SM SCT040 SCT250
     FM110200 VRB03KT P6SM SKC
     FM111400 04008KT P6SM FEW250
     FM112000 29008KT P6SM FEW250=



000
FTUS42 KTBW 102340
TAFTPA
TAF
KTPA 102340Z 1100/1124 30009KT P6SM FEW060 FEW250
     FM110200 VRB03KT P6SM SKC
     FM111400 06006KT P6SM FEW250
     FM111800 23008KT P6SM FEW250=



000
FTUS42 KTBW 102340
TAFSRQ
TAF
KSRQ 102340Z 1100/1124 32010KT P6SM FEW040 FEW250
     FM110200 VRB04KT P6SM SKC
     FM111400 07007KT P6SM FEW250
     FM111800 26009KT P6SM FEW250=



000
FTUS42 KTBW 102113 AAA
TAFTPA
TAF AMD
KTPA 102113Z 1021/1118 30012G18KT P6SM FEW060 FEW250
     FM110100 32007KT P6SM SKC
     FM110500 01004KT P6SM SKC
     FM111100 05005KT P6SM SKC=



000
FTUS42 KTBW 102113 AAA
TAFTPA
TAF AMD
KTPA 102113Z 1021/1118 30012G18KT P6SM FEW060 FEW250
     FM110100 32007KT P6SM SKC
     FM110500 01004KT P6SM SKC
     FM111100 05005KT P6SM SKC=



    US Dept of Commerce
    National Oceanic and Atmospheric Administration
    National Weather Service
    1325 East West Highway
    Silver Spring, MD 20910
    Page Author: NWS Internet Services Team
Disclaimer
Information Quality
Credits
Glossary
Privacy Policy
Freedom of Information Act (FOIA)
About Us
Career Opportunities